createdAt,value
2023-04-08T00:01:44.446Z,10.97
2023-04-08T00:04:14.480Z,10.95
2023-04-08T00:06:42.923Z,10.94
2023-04-08T00:09:11.095Z,10.92
2023-04-08T00:11:39.138Z,10.89
2023-04-08T00:14:07.209Z,10.88
2023-04-08T00:16:36.933Z,10.93
2023-04-08T00:19:06.624Z,10.95
2023-04-08T00:21:34.699Z,10.97
2023-04-08T00:24:02.947Z,10.99
2023-04-08T00:26:31.014Z,11.02
2023-04-08T00:28:59.268Z,11.00
2023-04-08T00:31:27.382Z,11.01
2023-04-08T00:33:57.067Z,10.95
2023-04-08T00:36:27.759Z,10.92
2023-04-08T00:38:56.594Z,10.99
2023-04-08T00:41:24.637Z,11.09
2023-04-08T00:43:53.765Z,11.17
2023-04-08T00:46:22.651Z,11.18
2023-04-08T00:48:51.394Z,11.24
2023-04-08T00:51:21.348Z,11.28
2023-04-08T00:53:49.406Z,11.24
2023-04-08T00:56:17.442Z,11.27
2023-04-08T00:58:45.539Z,11.31
2023-04-08T01:01:20.534Z,11.37
2023-04-08T01:03:59.295Z,11.34
2023-04-08T01:06:36.905Z,11.34
2023-04-08T01:09:07.217Z,11.36
2023-04-08T01:11:36.440Z,11.36
2023-04-08T01:14:07.505Z,11.29
2023-04-08T01:16:36.198Z,11.26
2023-04-08T01:19:06.175Z,11.24
2023-04-08T01:21:37.423Z,11.23
2023-04-08T01:24:12.624Z,11.20
2023-04-08T01:26:42.573Z,11.17
2023-04-08T01:29:13.753Z,11.16
2023-04-08T01:31:43.108Z,11.16
2023-04-08T01:34:12.789Z,11.20
2023-04-08T01:36:41.808Z,11.22
2023-04-08T01:39:10.406Z,11.25
2023-04-08T01:41:39.440Z,11.31
2023-04-08T01:44:10.127Z,11.37
2023-04-08T01:46:40.056Z,11.39
2023-04-08T01:49:09.034Z,11.45
2023-04-08T01:51:39.515Z,11.52
2023-04-08T01:54:07.913Z,11.54
2023-04-08T01:56:40.391Z,11.58
2023-04-08T01:59:13.958Z,11.61
2023-04-08T02:01:44.318Z,11.62
2023-04-08T02:04:13.881Z,11.67
2023-04-08T02:06:42.234Z,11.70
2023-04-08T02:09:10.254Z,11.70
2023-04-08T02:11:38.589Z,11.74
2023-04-08T02:14:06.782Z,11.78
2023-04-08T02:16:43.770Z,11.79
2023-04-08T02:19:18.760Z,11.84
2023-04-08T02:21:51.021Z,11.90
2023-04-08T02:24:20.111Z,11.96
2023-04-08T02:26:51.853Z,12.00
2023-04-08T02:29:20.406Z,12.03
2023-04-08T02:31:51.215Z,12.02
2023-04-08T02:34:22.207Z,12.03
2023-04-08T02:36:51.215Z,12.03
2023-04-08T02:39:19.498Z,12.01
2023-04-08T02:41:50.327Z,12.08
2023-04-08T02:44:18.352Z,12.05
2023-04-08T02:46:46.383Z,12.07
2023-04-08T02:49:15.819Z,12.10
2023-04-08T02:51:43.900Z,12.14
2023-04-08T02:54:11.992Z,12.18
2023-04-08T02:56:40.064Z,12.16
2023-04-08T02:59:08.095Z,12.15
2023-04-08T03:01:36.332Z,12.17
2023-04-08T03:04:04.403Z,12.16
2023-04-08T03:06:33.820Z,12.15
2023-04-08T03:09:01.875Z,12.18
2023-04-08T03:11:29.962Z,12.26
2023-04-08T03:13:58.017Z,12.31
2023-04-08T03:16:26.152Z,12.33
2023-04-08T03:18:54.287Z,12.38
2023-04-08T03:21:22.312Z,12.43
2023-04-08T03:23:51.734Z,12.45
2023-04-08T03:26:19.861Z,12.43
2023-04-08T03:28:48.112Z,12.47
2023-04-08T03:31:16.505Z,12.50
2023-04-08T03:33:44.534Z,12.47
2023-04-08T03:36:12.553Z,12.51
2023-04-08T03:38:40.659Z,12.53
2023-04-08T03:41:10.052Z,12.56
2023-04-08T03:43:38.216Z,12.57
2023-04-08T03:46:06.402Z,12.57
2023-04-08T03:48:34.486Z,12.60
2023-04-08T03:51:02.598Z,12.60
2023-04-08T03:53:30.887Z,12.53
2023-04-08T03:55:59.124Z,12.50
2023-04-08T03:58:28.554Z,12.55
2023-04-08T04:00:56.616Z,12.61
2023-04-08T04:03:24.970Z,12.62
2023-04-08T04:05:53.121Z,12.65
2023-04-08T04:08:21.207Z,12.62
2023-04-08T04:10:49.234Z,12.61
2023-04-08T04:13:17.324Z,12.64
2023-04-08T04:15:46.814Z,12.57
2023-04-08T04:18:14.994Z,12.60
2023-04-08T04:20:43.154Z,12.64
2023-04-08T04:23:11.288Z,12.66
2023-04-08T04:25:42.686Z,12.70
2023-04-08T04:28:10.861Z,12.71
2023-04-08T04:30:39.430Z,12.71
2023-04-08T04:33:09.073Z,12.74
2023-04-08T04:35:37.125Z,12.78
2023-04-08T04:38:08.134Z,12.78
2023-04-08T04:40:36.272Z,12.77
2023-04-08T04:43:04.296Z,12.81
2023-04-08T04:45:32.386Z,12.74
2023-04-08T04:48:00.496Z,12.77
2023-04-08T04:50:29.967Z,12.77
2023-04-08T04:52:58.030Z,12.86
2023-04-08T04:55:26.629Z,12.86
2023-04-08T04:57:54.653Z,12.91
2023-04-08T05:00:22.836Z,12.93
2023-04-08T05:02:50.977Z,12.89
2023-04-08T05:05:19.239Z,12.92
2023-04-08T05:07:48.748Z,13.00
2023-04-08T05:10:16.860Z,13.06
2023-04-08T05:12:45.027Z,13.07
2023-04-08T05:15:13.132Z,13.07
2023-04-08T05:17:41.373Z,13.03
2023-04-08T05:20:10.230Z,13.02
2023-04-08T05:22:38.273Z,13.03
2023-04-08T05:25:08.499Z,13.09
2023-04-08T05:27:36.800Z,13.11
2023-04-08T05:30:05.625Z,13.16
2023-04-08T05:32:33.735Z,13.16
2023-04-08T05:35:04.414Z,13.18
2023-04-08T05:37:32.536Z,13.20
2023-04-08T05:40:00.535Z,13.24
2023-04-08T05:42:29.960Z,13.23
2023-04-08T05:44:57.998Z,13.21
2023-04-08T05:47:26.137Z,13.25
2023-04-08T05:49:54.285Z,13.27
2023-04-08T05:52:22.456Z,13.26
2023-04-08T05:54:50.471Z,13.30
2023-04-08T05:57:18.556Z,13.34
2023-04-08T05:59:47.964Z,13.38
2023-04-08T06:02:16.115Z,13.44
2023-04-08T06:04:44.385Z,13.40
2023-04-08T06:07:12.598Z,13.43
2023-04-08T06:09:40.624Z,13.40
2023-04-08T06:12:08.680Z,13.41
2023-04-08T06:14:36.695Z,13.37
2023-04-08T06:17:06.187Z,13.41
2023-04-08T06:19:34.340Z,13.47
2023-04-08T06:22:02.403Z,13.55
2023-04-08T06:24:30.891Z,13.54
2023-04-08T06:26:58.937Z,13.51
2023-04-08T06:29:27.148Z,13.51
2023-04-08T06:31:55.299Z,13.47
2023-04-08T06:34:24.753Z,13.51
2023-04-08T06:36:52.768Z,13.53
2023-04-08T06:39:21.611Z,13.60
2023-04-08T06:41:49.688Z,13.65
2023-04-08T06:44:33.885Z,13.78
2023-04-08T06:47:01.883Z,13.80
2023-04-08T06:49:31.359Z,13.82
2023-04-08T06:51:59.416Z,13.80
2023-04-08T06:54:27.515Z,13.80
2023-04-08T06:56:55.705Z,13.78
2023-04-08T06:59:23.700Z,13.74
2023-04-08T07:01:51.906Z,13.80
2023-04-08T07:04:20.192Z,13.88
2023-04-08T07:06:50.037Z,13.92
2023-04-08T07:09:18.119Z,13.92
2023-04-08T07:11:46.148Z,13.99
2023-04-08T07:14:14.359Z,14.18
2023-04-08T07:16:42.452Z,14.37
2023-04-08T07:19:10.736Z,14.49
2023-04-08T07:21:38.794Z,14.60
2023-04-08T07:24:08.448Z,14.66
2023-04-08T07:26:36.893Z,14.58
2023-04-08T07:29:04.900Z,14.71
2023-04-08T07:31:33.032Z,14.60
2023-04-08T07:34:01.128Z,14.54
2023-04-08T07:36:29.302Z,14.59
2023-04-08T07:38:57.531Z,14.64
2023-04-08T07:41:27.138Z,14.72
2023-04-08T07:43:55.938Z,14.79
2023-04-08T07:46:24.002Z,14.70
2023-04-08T07:48:53.070Z,14.73
2023-04-08T07:51:21.630Z,14.81
2023-04-08T07:53:49.776Z,14.80
2023-04-08T07:56:18.688Z,14.82
2023-04-08T07:58:52.876Z,14.80
2023-04-08T08:01:23.598Z,14.89
2023-04-08T08:03:53.590Z,15.02
2023-04-08T08:06:22.272Z,15.04
2023-04-08T08:08:50.413Z,14.99
2023-04-08T08:11:18.466Z,15.01
2023-04-08T08:13:48.007Z,15.02
2023-04-08T08:16:16.484Z,15.04
2023-04-08T08:18:44.525Z,15.09
2023-04-08T08:21:12.910Z,15.13
2023-04-08T08:23:41.128Z,15.06
2023-04-08T08:26:11.065Z,15.03
2023-04-08T08:28:39.499Z,15.08
2023-04-08T08:31:09.013Z,15.10
2023-04-08T08:33:37.083Z,15.17
2023-04-08T08:36:07.240Z,15.22
2023-04-08T08:38:35.440Z,15.29
2023-04-08T08:41:04.599Z,15.43
2023-04-08T08:43:33.648Z,15.54
2023-04-08T08:46:01.891Z,15.55
2023-04-08T08:48:32.380Z,15.40
2023-04-08T08:51:00.438Z,15.37
2023-04-08T08:53:35.020Z,15.32
2023-04-08T08:58:34.780Z,15.33
2023-04-08T09:01:02.853Z,15.47
2023-04-08T09:03:32.627Z,15.53
2023-04-08T09:06:03.973Z,15.60
2023-04-08T09:08:33.377Z,15.69
2023-04-08T09:11:15.730Z,15.66
2023-04-08T09:13:44.270Z,15.73
2023-04-08T09:16:14.155Z,15.81
2023-04-08T09:18:44.794Z,15.93
2023-04-08T09:21:13.827Z,16.05
2023-04-08T09:23:43.738Z,16.16
2023-04-08T09:26:13.294Z,16.18
2023-04-08T09:28:42.444Z,16.19
2023-04-08T09:31:24.907Z,16.10
2023-04-08T09:33:55.633Z,16.10
2023-04-08T09:36:23.940Z,16.21
2023-04-08T09:38:51.956Z,16.31
2023-04-08T09:41:23.498Z,16.41
2023-04-08T09:43:54.299Z,16.39
2023-04-08T09:46:28.162Z,16.30
2023-04-08T09:49:11.990Z,16.26
2023-04-08T09:51:45.560Z,16.24
2023-04-08T09:54:16.521Z,16.13
2023-04-08T09:56:50.597Z,16.15
2023-04-08T09:59:21.866Z,16.29
2023-04-08T10:01:54.211Z,16.44
2023-04-08T10:04:27.705Z,16.51
2023-04-08T10:06:59.503Z,16.59
2023-04-08T10:09:29.371Z,16.69
2023-04-08T10:11:57.473Z,16.79
2023-04-08T10:14:28.656Z,16.86
2023-04-08T10:17:28.495Z,16.79
2023-04-08T10:19:58.699Z,16.65
2023-04-08T10:22:51.708Z,16.70
2023-04-08T10:25:33.619Z,16.98
2023-04-08T10:28:03.360Z,17.13
2023-04-08T10:30:41.961Z,17.17
2023-04-08T10:33:12.352Z,17.21
2023-04-08T10:35:44.249Z,17.24
2023-04-08T10:38:13.397Z,17.33
2023-04-08T10:40:42.685Z,17.43
2023-04-08T10:43:11.611Z,17.49
2023-04-08T10:45:40.039Z,17.48
2023-04-08T10:48:15.492Z,17.47
2023-04-08T10:50:45.702Z,17.52
2023-04-08T10:53:13.832Z,17.58
2023-04-08T10:55:43.766Z,17.47
2023-04-08T10:58:12.762Z,17.55
2023-04-08T11:00:41.663Z,17.62
2023-04-08T11:03:13.048Z,17.69
2023-04-08T11:05:42.480Z,17.80
2023-04-08T11:08:11.922Z,17.74
2023-04-08T11:10:40.198Z,17.79
2023-04-08T11:13:09.900Z,17.79
2023-04-08T11:15:39.618Z,17.82
2023-04-08T11:18:08.344Z,17.87
2023-04-08T11:20:37.242Z,17.89
2023-04-08T11:23:05.346Z,17.95
2023-04-08T11:25:35.148Z,18.00
2023-04-08T11:28:03.672Z,18.02
2023-04-08T11:30:32.561Z,18.06
2023-04-08T11:33:00.837Z,17.91
2023-04-08T11:35:30.884Z,17.81
2023-04-08T11:37:59.055Z,17.75
2023-04-08T11:40:27.555Z,17.79
2023-04-08T11:42:57.037Z,17.91
2023-04-08T11:45:25.074Z,18.07
2023-04-08T11:47:54.220Z,18.17
2023-04-08T11:50:25.687Z,18.21
2023-04-08T11:52:55.429Z,18.24
2023-04-08T11:55:25.009Z,18.33
2023-04-08T11:57:53.494Z,18.30
2023-04-08T12:00:23.454Z,18.22
2023-04-08T12:02:53.028Z,18.36
2023-04-08T12:05:21.736Z,18.51
2023-04-08T12:07:49.757Z,18.50
2023-04-08T12:10:17.925Z,18.54
2023-04-08T12:12:45.991Z,18.53
2023-04-08T12:15:14.085Z,18.41
2023-04-08T12:17:43.801Z,18.37
2023-04-08T12:20:12.835Z,18.42
2023-04-08T12:22:41.257Z,18.48
2023-04-08T12:25:10.059Z,18.79
2023-04-08T12:27:38.063Z,18.95
2023-04-08T12:30:06.964Z,19.08
2023-04-08T12:32:35.611Z,19.23
2023-04-08T12:35:05.505Z,19.28
2023-04-08T12:37:34.239Z,19.33
2023-04-08T12:40:02.697Z,19.21
2023-04-08T12:42:31.315Z,19.35
2023-04-08T12:44:59.307Z,19.56
2023-04-08T12:47:27.515Z,19.66
2023-04-08T12:49:55.705Z,19.72
2023-04-08T12:52:25.388Z,19.67
2023-04-08T12:54:53.526Z,19.62
2023-04-08T12:57:21.852Z,19.74
2023-04-08T12:59:49.976Z,19.83
2023-04-08T13:02:19.278Z,19.89
2023-04-08T13:04:47.696Z,20.14
2023-04-08T13:07:16.473Z,20.35
2023-04-08T13:09:46.701Z,20.54
2023-04-08T13:12:16.218Z,20.50
2023-04-08T13:14:44.286Z,20.44
2023-04-08T13:17:12.396Z,20.57
2023-04-08T13:19:40.450Z,20.62
2023-04-08T13:22:08.455Z,20.63
2023-04-08T13:24:36.492Z,20.88
2023-04-08T13:27:05.924Z,21.17
2023-04-08T13:29:33.967Z,21.30
2023-04-08T13:32:02.645Z,21.28
2023-04-08T13:34:31.042Z,21.22
2023-04-08T13:36:59.309Z,21.08
2023-04-08T13:39:27.368Z,20.99
2023-04-08T13:41:58.134Z,21.15
2023-04-08T13:44:27.982Z,21.33
2023-04-08T13:46:56.160Z,21.40
2023-04-08T13:49:24.237Z,21.43
2023-04-08T13:51:54.586Z,21.77
2023-04-08T13:54:22.764Z,22.32
2023-04-08T13:56:50.881Z,22.33
2023-04-08T13:59:18.919Z,22.81
2023-04-08T14:01:48.446Z,23.08
2023-04-08T14:04:16.572Z,23.12
2023-04-08T14:06:44.883Z,22.68
2023-04-08T14:09:13.058Z,22.51
2023-04-08T14:11:41.221Z,22.60
2023-04-08T14:14:09.229Z,22.23
2023-04-08T14:16:37.317Z,22.26
2023-04-08T14:19:06.784Z,21.72
2023-04-08T14:21:34.850Z,21.87
2023-04-08T14:24:03.003Z,22.34
2023-04-08T14:26:33.249Z,22.43
2023-04-08T14:29:01.366Z,22.05
2023-04-08T14:31:29.378Z,22.03
2023-04-08T14:33:57.454Z,22.56
2023-04-08T14:36:27.934Z,23.09
2023-04-08T14:38:56.491Z,23.40
2023-04-08T14:41:28.364Z,23.44
2023-04-08T14:43:56.604Z,23.39
2023-04-08T14:46:26.569Z,23.52
2023-04-08T14:48:56.744Z,23.44
2023-04-08T14:51:26.207Z,23.50
2023-04-08T14:53:54.315Z,23.69
2023-04-08T14:56:22.405Z,23.81
2023-04-08T14:58:50.780Z,23.81
2023-04-08T15:01:19.111Z,23.87
2023-04-08T15:03:47.557Z,23.57
2023-04-08T15:06:17.752Z,23.31
2023-04-08T15:08:47.188Z,23.26
2023-04-08T15:11:15.528Z,23.41
2023-04-08T15:13:43.539Z,23.50
2023-04-08T15:16:11.702Z,23.40
2023-04-08T15:18:39.900Z,23.16
2023-04-08T15:21:07.977Z,23.20
2023-04-08T15:23:36.620Z,23.07
2023-04-08T15:26:06.156Z,22.60
2023-04-08T15:28:34.153Z,22.38
2023-04-08T15:31:02.324Z,22.37
2023-04-08T15:33:30.358Z,22.37
2023-04-08T15:36:03.119Z,22.36
2023-04-08T15:38:33.536Z,22.50
2023-04-08T15:41:01.749Z,22.54
2023-04-08T15:43:31.503Z,22.54
2023-04-08T15:45:59.582Z,22.54
2023-04-08T15:48:30.446Z,22.39
2023-04-08T15:50:58.547Z,22.23
2023-04-08T15:53:26.664Z,21.90
2023-04-08T15:55:59.141Z,21.66
2023-04-08T15:58:27.234Z,21.46
2023-04-08T16:01:00.480Z,21.22
2023-04-08T16:03:28.635Z,21.04
2023-04-08T16:05:56.858Z,21.15
2023-04-08T16:08:24.860Z,21.30
2023-04-08T16:10:53.068Z,21.23
2023-04-08T16:13:21.076Z,21.04
2023-04-08T16:15:49.185Z,20.88
2023-04-08T16:18:18.601Z,20.87
2023-04-08T16:20:46.639Z,20.83
2023-04-08T16:23:15.648Z,20.70
2023-04-08T16:25:43.674Z,20.62
2023-04-08T16:28:12.017Z,20.65
2023-04-08T16:30:43.516Z,20.62
2023-04-08T16:33:11.895Z,20.47
2023-04-08T16:35:41.438Z,20.41
2023-04-08T16:38:09.667Z,20.43
2023-04-08T16:40:39.230Z,20.45
2023-04-08T16:43:07.313Z,20.48
2023-04-08T16:45:35.499Z,20.45
2023-04-08T16:48:03.597Z,20.33
2023-04-08T16:50:31.928Z,20.14
2023-04-08T16:53:01.612Z,20.06
2023-04-08T16:55:33.025Z,20.01
2023-04-08T16:58:01.354Z,19.97
2023-04-08T17:00:30.436Z,19.91
2023-04-08T17:02:59.168Z,19.89
2023-04-08T17:05:30.262Z,19.90
2023-04-08T17:07:58.565Z,19.74
2023-04-08T17:10:28.089Z,19.61
2023-04-08T17:12:57.816Z,19.56
2023-04-08T17:15:26.317Z,19.51
2023-04-08T17:17:54.509Z,19.51
2023-04-08T17:20:22.612Z,19.47
2023-04-08T17:22:51.014Z,19.39
2023-04-08T17:25:19.068Z,19.21
2023-04-08T17:27:48.596Z,19.16
2023-04-08T17:30:16.663Z,19.06
2023-04-08T17:32:44.782Z,19.02
2023-04-08T17:35:13.331Z,18.87
2023-04-08T17:37:41.452Z,18.84
2023-04-08T17:40:10.573Z,18.89
2023-04-08T17:42:38.613Z,18.93
2023-04-08T17:45:09.806Z,18.91
2023-04-08T17:47:38.119Z,18.87
2023-04-08T17:50:07.367Z,18.87
2023-04-08T17:52:35.435Z,18.86
2023-04-08T17:55:03.499Z,18.73
2023-04-08T17:57:31.717Z,18.69
2023-04-08T17:59:59.809Z,18.71
2023-04-08T18:02:29.331Z,18.72
2023-04-08T18:04:58.533Z,18.62
2023-04-08T18:07:26.540Z,18.59
2023-04-08T18:09:54.605Z,18.46
2023-04-08T18:12:22.797Z,18.43
2023-04-08T18:14:50.831Z,18.46
2023-04-08T18:17:18.910Z,18.49
2023-04-08T18:19:48.323Z,18.51
2023-04-08T18:22:16.485Z,18.46
2023-04-08T18:24:44.528Z,18.43
2023-04-08T18:27:12.680Z,18.46
2023-04-08T18:29:40.745Z,18.43
2023-04-08T18:32:08.854Z,18.33
2023-04-08T18:34:36.869Z,18.21
2023-04-08T18:37:06.360Z,18.11
2023-04-08T18:39:34.435Z,18.06
2023-04-08T18:42:02.833Z,18.05
2023-04-08T18:44:30.957Z,17.84
2023-04-08T18:46:59.388Z,17.83
2023-04-08T18:49:30.170Z,17.80
2023-04-08T18:52:02.925Z,17.81
2023-04-08T18:54:33.020Z,17.91
2023-04-08T18:57:01.292Z,17.85
2023-04-08T18:59:30.027Z,17.85
2023-04-08T19:01:58.485Z,17.78
2023-04-08T19:04:26.814Z,17.79
2023-04-08T19:06:55.008Z,17.76
2023-04-08T19:09:23.492Z,17.74
2023-04-08T19:11:52.898Z,17.65
2023-04-08T19:14:20.944Z,17.67
2023-04-08T19:16:49.100Z,17.70
2023-04-08T19:19:17.281Z,17.68
2023-04-08T19:21:45.357Z,17.60
2023-04-08T19:24:13.426Z,17.60
2023-04-08T19:26:41.657Z,17.54
2023-04-08T19:29:11.965Z,17.48
2023-04-08T19:31:40.941Z,17.52
2023-04-08T19:34:09.054Z,17.55
2023-04-08T19:36:37.054Z,17.51
2023-04-08T19:39:05.791Z,17.46
2023-04-08T19:41:34.044Z,17.50
2023-04-08T19:44:02.170Z,17.52
2023-04-08T19:46:32.635Z,17.55
2023-04-08T19:49:00.891Z,17.54
2023-04-08T19:51:29.414Z,17.41
2023-04-08T19:53:57.744Z,17.35
2023-04-08T19:56:26.459Z,17.37
2023-04-08T19:58:54.785Z,17.36
2023-04-08T20:01:26.696Z,17.31
2023-04-08T20:03:56.350Z,17.37
2023-04-08T20:06:24.544Z,17.35
2023-04-08T20:08:53.680Z,17.28
2023-04-08T20:11:22.197Z,17.23
2023-04-08T20:13:51.362Z,17.18
2023-04-08T20:16:19.608Z,17.21
2023-04-08T20:18:47.977Z,17.21
2023-04-08T20:21:20.252Z,17.15
2023-04-08T20:23:48.348Z,17.13
2023-04-08T20:26:16.917Z,17.10
2023-04-08T20:28:46.020Z,17.07
2023-04-08T20:31:14.475Z,17.04
2023-04-08T20:33:45.362Z,17.02
2023-04-08T20:36:13.623Z,16.99
2023-04-08T20:38:43.140Z,16.91
2023-04-08T20:41:11.390Z,16.92
2023-04-08T20:43:40.596Z,16.92
2023-04-08T20:46:09.283Z,16.95
2023-04-08T20:48:39.589Z,17.00
2023-04-08T20:51:07.803Z,16.99
2023-04-08T20:53:35.912Z,16.96
2023-04-08T20:56:06.089Z,16.92
2023-04-08T20:58:34.323Z,16.65
2023-04-08T21:01:02.507Z,16.63
2023-04-08T21:03:30.676Z,16.58
2023-04-08T21:06:01.701Z,16.44
2023-04-08T21:08:29.763Z,16.46
2023-04-08T21:10:57.977Z,16.42
2023-04-08T21:13:27.581Z,16.27
2023-04-08T21:15:55.757Z,16.36
2023-04-08T21:18:24.113Z,16.43
2023-04-08T21:20:52.244Z,16.21
2023-04-08T21:23:21.439Z,16.25
2023-04-08T21:25:49.493Z,16.28
2023-04-08T21:28:17.747Z,16.32
2023-04-08T21:30:49.552Z,16.19
2023-04-08T21:33:17.616Z,16.06
2023-04-08T21:35:45.783Z,16.10
2023-04-08T21:38:13.820Z,15.96
2023-04-08T21:40:42.851Z,15.91
2023-04-08T21:43:12.819Z,16.06
2023-04-08T21:45:41.034Z,16.20
2023-04-08T21:48:10.619Z,16.17
2023-04-08T21:50:41.853Z,16.17
2023-04-08T21:53:09.924Z,16.21
2023-04-08T21:55:38.053Z,16.25
2023-04-08T21:58:06.264Z,16.20
2023-04-08T22:00:34.860Z,16.28
2023-04-08T22:03:07.061Z,16.34
2023-04-08T22:05:36.862Z,16.40
2023-04-08T22:08:05.020Z,16.27
2023-04-08T22:10:33.125Z,16.26
2023-04-08T22:13:01.325Z,16.30
2023-04-08T22:15:29.706Z,16.33
2023-04-08T22:17:58.923Z,16.17
2023-04-08T22:20:27.084Z,16.05
2023-04-08T22:22:56.638Z,16.12
2023-04-08T22:25:24.613Z,16.05
2023-04-08T22:27:52.711Z,15.99
2023-04-08T22:30:21.467Z,16.00
2023-04-08T22:32:49.543Z,15.99
2023-04-08T22:35:17.739Z,15.90
2023-04-08T22:37:45.967Z,15.82
2023-04-08T22:40:15.735Z,15.84
2023-04-08T22:42:43.956Z,15.88
2023-04-08T22:45:12.251Z,15.93
2023-04-08T22:47:40.370Z,15.85
2023-04-08T22:50:09.199Z,15.73
2023-04-08T22:52:37.251Z,15.69
2023-04-08T22:55:06.353Z,15.76
2023-04-08T22:57:36.172Z,15.76
2023-04-08T23:00:04.969Z,15.77
2023-04-08T23:02:33.151Z,15.87
2023-04-08T23:05:01.233Z,15.95
2023-04-08T23:07:29.318Z,15.95
2023-04-08T23:09:57.354Z,15.96
2023-04-08T23:12:25.419Z,15.92
2023-04-08T23:14:54.982Z,15.95
2023-04-08T23:17:23.099Z,15.97
2023-04-08T23:19:51.385Z,15.89
2023-04-08T23:22:19.449Z,15.82
2023-04-08T23:24:47.525Z,15.72
2023-04-08T23:27:15.564Z,15.73
2023-04-08T23:29:43.604Z,15.72
2023-04-08T23:32:13.039Z,15.80
2023-04-08T23:34:41.071Z,15.83
2023-04-08T23:37:09.132Z,15.82
2023-04-08T23:39:37.216Z,15.86
2023-04-08T23:42:05.600Z,15.92
2023-04-08T23:44:33.683Z,15.90
2023-04-08T23:47:01.780Z,15.85
2023-04-08T23:49:31.158Z,15.81
2023-04-08T23:51:59.192Z,15.81
2023-04-08T23:54:30.463Z,15.85
2023-04-08T23:56:58.514Z,15.84
2023-04-08T23:59:28.788Z,15.78
